createdAt,value
2023-04-08T00:01:10.576Z,80
2023-04-08T00:21:12.076Z,80
2023-04-08T00:41:08.331Z,81
2023-04-08T01:01:08.000Z,83
2023-04-08T01:21:09.780Z,82
2023-04-08T01:41:13.318Z,84
2023-04-08T02:01:13.526Z,83
2023-04-08T02:21:10.355Z,84
2023-04-08T02:40:48.553Z,83
2023-04-08T03:00:46.874Z,80
2023-04-08T03:20:47.688Z,81
2023-04-08T03:40:47.202Z,81
2023-04-08T04:01:09.240Z,82
2023-04-08T04:20:48.773Z,82
2023-04-08T04:40:49.356Z,83
2023-04-08T05:01:12.375Z,83
2023-04-08T05:21:09.665Z,83
2023-04-08T05:41:17.437Z,82
2023-04-08T06:01:08.658Z,82
2023-04-08T06:21:19.317Z,83
2023-04-08T06:41:13.298Z,80
2023-04-08T07:01:08.447Z,81
2023-04-08T07:21:07.578Z,78
2023-04-08T07:41:15.172Z,75
2023-04-08T08:01:08.138Z,76
2023-04-08T08:20:46.833Z,75
2023-04-08T08:41:12.031Z,73
2023-04-08T09:01:12.343Z,74
2023-04-08T09:21:11.895Z,73
2023-04-08T09:41:08.700Z,74
2023-04-08T10:01:08.999Z,72
2023-04-08T10:21:18.927Z,67
2023-04-08T10:40:47.514Z,68
2023-04-08T11:01:09.154Z,67
2023-04-08T11:21:14.596Z,65
2023-04-08T11:41:07.952Z,61
2023-04-08T12:01:08.738Z,61
2023-04-08T12:21:13.860Z,59
2023-04-08T12:40:50.503Z,58
2023-04-08T13:00:56.274Z,59
2023-04-08T13:21:07.450Z,56
2023-04-08T13:41:15.963Z,56
2023-04-08T14:01:09.081Z,57
2023-04-08T14:21:07.950Z,59
2023-04-08T14:41:10.140Z,62
2023-04-08T15:01:08.057Z,59
2023-04-08T15:21:20.216Z,50
2023-04-08T15:41:12.789Z,55
2023-04-08T16:01:15.539Z,52
2023-04-08T16:21:08.440Z,52
2023-04-08T16:41:12.529Z,50
2023-04-08T17:01:12.677Z,51
2023-04-08T17:21:17.064Z,55
2023-04-08T17:41:35.360Z,56
2023-04-08T18:01:16.964Z,59
2023-04-08T18:20:50.184Z,60
2023-04-08T18:40:50.232Z,61
2023-04-08T19:00:47.697Z,64
2023-04-08T19:20:46.483Z,66
2023-04-08T19:40:47.605Z,68
2023-04-08T20:00:49.251Z,68
2023-04-08T20:20:54.957Z,69
2023-04-08T20:40:47.970Z,70
2023-04-08T21:00:46.871Z,70
2023-04-08T21:20:47.226Z,69
2023-04-08T21:40:47.488Z,71
2023-04-08T22:01:20.703Z,72
2023-04-08T22:20:48.322Z,72
2023-04-08T22:40:46.822Z,73
2023-04-08T23:00:47.325Z,73
2023-04-08T23:21:17.379Z,76
2023-04-08T23:41:06.989Z,76
